createdAt,value
2022-08-10T00:01:54.330Z,90.04
2022-08-10T00:04:24.419Z,90.24
2022-08-10T00:06:53.901Z,90.21
2022-08-10T00:09:24.242Z,90.21
2022-08-10T00:11:52.298Z,90.50
2022-08-10T00:14:20.374Z,90.36
2022-08-10T00:16:48.551Z,90.50
2022-08-10T00:19:18.171Z,90.53
2022-08-10T00:21:48.387Z,90.69
2022-08-10T00:24:16.655Z,90.96
2022-08-10T00:27:52.660Z,90.80
2022-08-10T00:29:33.558Z,90.94
2022-08-10T00:32:02.159Z,90.98
2022-08-10T00:34:33.263Z,91.14
2022-08-10T00:37:02.209Z,91.23
2022-08-10T00:39:34.464Z,91.41
2022-08-10T00:42:08.461Z,91.75
2022-08-10T00:44:42.038Z,91.82
2022-08-10T00:47:22.550Z,91.92
2022-08-10T00:49:59.716Z,92.06
2022-08-10T00:52:34.653Z,92.07
2022-08-10T00:55:05.437Z,92.07
2022-08-10T00:57:35.740Z,92.22
2022-08-10T01:00:06.561Z,92.34
2022-08-10T01:02:34.983Z,92.44
2022-08-10T01:05:10.199Z,92.42
2022-08-10T01:08:04.852Z,92.55
2022-08-10T01:10:59.049Z,93.57
2022-08-10T01:13:42.791Z,93.74
2022-08-10T01:16:16.595Z,94.12
2022-08-10T01:19:02.777Z,94.66
2022-08-10T01:22:01.062Z,94.97
2022-08-10T01:24:47.360Z,94.78
2022-08-10T01:27:39.085Z,95.03
2022-08-10T01:30:14.449Z,95.08
2022-08-10T01:32:48.646Z,95.09
2022-08-10T01:35:50.186Z,95.30
2022-08-10T01:38:34.959Z,95.42
2022-08-10T01:41:12.951Z,95.48
2022-08-10T01:43:58.943Z,95.71
2022-08-10T01:46:35.216Z,95.78
2022-08-10T01:49:08.907Z,95.97
2022-08-10T01:51:49.272Z,95.92
2022-08-10T01:54:21.535Z,96.17
2022-08-10T01:56:54.221Z,96.08
2022-08-10T01:59:40.459Z,96.16
2022-08-10T02:02:12.007Z,96.24
2022-08-10T02:04:43.718Z,96.21
2022-08-10T02:07:16.499Z,96.19
2022-08-10T02:09:53.889Z,96.16
2022-08-10T02:12:30.388Z,96.39
2022-08-10T02:15:04.361Z,96.50
2022-08-10T02:17:59.003Z,96.45
2022-08-10T02:20:31.660Z,96.44
2022-08-10T02:23:05.555Z,96.61
2022-08-10T02:25:41.774Z,96.59
2022-08-10T02:28:30.523Z,96.74
2022-08-10T02:31:11.769Z,96.89
2022-08-10T02:33:56.702Z,96.96
2022-08-10T02:36:31.543Z,96.89
2022-08-10T02:39:03.891Z,96.92
2022-08-10T02:45:14.713Z,96.97
2022-08-10T02:45:22.446Z,97.18
2022-08-10T02:47:51.131Z,97.26
2022-08-10T02:50:27.837Z,97.34
2022-08-10T02:53:56.479Z,97.32
2022-08-10T02:56:32.602Z,97.24
2022-08-10T02:59:40.363Z,97.42
2022-08-10T03:02:14.875Z,97.55
2022-08-10T03:04:58.093Z,97.68
2022-08-10T03:07:43.153Z,97.71
2022-08-10T03:10:20.706Z,97.87
2022-08-10T03:12:53.234Z,97.85
2022-08-10T03:15:27.906Z,97.79
2022-08-10T03:17:59.216Z,97.83
2022-08-10T03:20:38.274Z,97.77
2022-08-10T03:23:18.750Z,97.97
2022-08-10T03:25:53.111Z,98.22
2022-08-10T03:28:27.482Z,98.26
2022-08-10T03:30:59.863Z,98.28
2022-08-10T03:33:32.948Z,98.45
2022-08-10T03:36:41.907Z,98.49
2022-08-10T03:38:53.617Z,98.65
2022-08-10T03:41:35.611Z,98.45
2022-08-10T03:44:07.084Z,98.56
2022-08-10T03:46:38.757Z,98.69
2022-08-10T03:49:07.857Z,98.73
2022-08-10T03:51:39.487Z,98.62
2022-08-10T03:54:08.745Z,98.57
2022-08-10T03:56:39.078Z,98.56
2022-08-10T03:59:14.399Z,98.34
2022-08-10T04:02:52.879Z,98.40
2022-08-10T04:04:33.875Z,98.31
2022-08-10T04:07:04.936Z,98.24
2022-08-10T04:09:53.476Z,98.13
2022-08-10T04:12:24.969Z,98.05
2022-08-10T04:14:53.878Z,97.95
2022-08-10T04:18:03.692Z,97.57
2022-08-10T04:20:26.288Z,97.64
2022-08-10T04:23:28.048Z,97.65
2022-08-10T04:25:57.027Z,97.59
2022-08-10T04:28:26.750Z,97.16
2022-08-10T04:30:57.586Z,97.10
2022-08-10T04:33:27.553Z,96.89
2022-08-10T04:35:57.321Z,96.80
2022-08-10T04:38:26.647Z,96.59
2022-08-10T04:40:55.090Z,96.26
2022-08-10T04:43:23.436Z,96.00
2022-08-10T04:45:52.018Z,95.89
2022-08-10T04:48:43.325Z,95.49
2022-08-10T04:51:17.763Z,95.43
2022-08-10T04:54:03.793Z,95.18
2022-08-10T04:56:37.482Z,94.99
2022-08-10T04:59:07.896Z,94.94
2022-08-10T05:02:28.811Z,94.64
2022-08-10T05:04:34.386Z,94.27
2022-08-10T05:07:16.563Z,94.05
2022-08-10T05:10:03.559Z,93.80
2022-08-10T05:12:38.976Z,93.37
2022-08-10T05:15:12.690Z,93.10
2022-08-10T05:18:08.162Z,92.74
2022-08-10T05:20:37.950Z,92.38
2022-08-10T05:23:06.043Z,92.10
2022-08-10T05:25:38.298Z,91.67
2022-08-10T05:28:07.091Z,91.17
2022-08-10T05:30:35.259Z,90.70
2022-08-10T05:33:08.028Z,90.00
2022-08-10T05:35:56.312Z,89.37
2022-08-10T05:38:28.473Z,86.65
2022-08-10T05:41:02.800Z,82.68
2022-08-10T05:43:31.181Z,78.45
2022-08-10T05:46:18.349Z,74.74
2022-08-10T05:48:56.791Z,71.21
2022-08-10T05:51:30.374Z,68.18
2022-08-10T05:54:05.689Z,65.94
2022-08-10T05:56:57.033Z,63.41
2022-08-10T06:00:30.814Z,61.94
2022-08-10T06:02:33.641Z,59.56
2022-08-10T06:05:11.326Z,57.84
2022-08-10T06:07:48.818Z,57.83
2022-08-10T06:10:31.629Z,56.95
2022-08-10T06:13:26.703Z,57.44
2022-08-10T06:15:57.465Z,58.69
2022-08-10T06:18:26.250Z,60.62
2022-08-10T06:21:01.010Z,62.06
2022-08-10T06:23:30.899Z,63.19
2022-08-10T06:26:10.762Z,63.93
2022-08-10T06:29:03.760Z,64.47
2022-08-10T06:31:53.879Z,65.96
2022-08-10T06:34:26.318Z,67.23
2022-08-10T06:36:59.744Z,68.30
2022-08-10T06:39:36.568Z,68.40
2022-08-10T06:42:20.155Z,66.55
2022-08-10T06:45:06.792Z,63.44
2022-08-10T06:47:45.230Z,61.24
2022-08-10T06:50:58.089Z,59.47
2022-08-10T06:53:52.279Z,59.80
2022-08-10T06:56:37.514Z,59.42
2022-08-10T06:59:21.818Z,60.26
2022-08-10T07:02:09.948Z,59.58
2022-08-10T07:04:44.862Z,57.82
2022-08-10T07:07:19.805Z,56.34
2022-08-10T07:09:51.405Z,55.03
2022-08-10T07:12:22.506Z,55.73
2022-08-10T07:14:52.218Z,55.75
2022-08-10T07:17:24.487Z,55.68
2022-08-10T07:19:58.186Z,55.94
2022-08-10T07:23:22.682Z,56.30
2022-08-10T07:25:25.349Z,58.12
2022-08-10T07:27:58.637Z,59.33
2022-08-10T07:30:37.470Z,60.31
2022-08-10T07:33:07.741Z,59.59
2022-08-10T07:35:42.713Z,59.57
2022-08-10T07:38:18.408Z,56.83
2022-08-10T07:40:49.167Z,55.24
2022-08-10T07:43:20.684Z,53.16
2022-08-10T07:45:50.076Z,51.58
2022-08-10T07:48:34.730Z,47.70
2022-08-10T07:51:04.444Z,46.06
2022-08-10T07:53:38.842Z,44.77
2022-08-10T07:56:21.226Z,43.76
2022-08-10T07:59:09.731Z,42.11
2022-08-10T08:01:50.873Z,41.27
2022-08-10T08:04:24.266Z,41.08
2022-08-10T08:06:54.299Z,40.37
2022-08-10T08:09:25.092Z,39.23
2022-08-10T08:11:55.246Z,38.75
2022-08-10T08:14:24.553Z,38.35
2022-08-10T08:16:55.490Z,38.18
2022-08-10T08:19:35.430Z,38.22
2022-08-10T08:24:06.310Z,38.00
2022-08-10T08:24:57.552Z,37.42
2022-08-10T08:27:27.545Z,39.99
2022-08-10T08:29:56.322Z,42.03
2022-08-10T08:32:28.146Z,42.83
2022-08-10T08:35:02.394Z,43.35
2022-08-10T08:38:30.242Z,41.25
2022-08-10T08:40:33.990Z,39.64
2022-08-10T08:43:31.503Z,37.96
2022-08-10T08:46:18.634Z,36.45
2022-08-10T08:49:03.542Z,35.79
2022-08-10T08:52:07.801Z,36.23
2022-08-10T08:55:52.342Z,34.85
2022-08-10T13:52:12.855Z,35.96
2022-08-10T13:54:43.085Z,31.76
2022-08-10T13:57:12.796Z,29.52
2022-08-10T14:00:36.476Z,27.04
2022-08-10T14:02:58.835Z,27.24
2022-08-10T14:05:38.130Z,28.53
2022-08-10T14:08:12.793Z,28.39
2022-08-10T14:11:10.103Z,30.33
2022-08-10T14:13:36.375Z,32.55
2022-08-10T14:16:07.568Z,33.79
2022-08-10T14:18:37.556Z,35.08
2022-08-10T14:21:06.667Z,36.06
2022-08-10T14:23:52.625Z,37.64
2022-08-10T14:26:26.963Z,38.27
2022-08-10T14:29:02.879Z,38.57
2022-08-10T14:31:33.994Z,39.10
2022-08-10T14:34:05.732Z,39.29
2022-08-10T14:37:05.715Z,39.71
2022-08-10T14:39:45.250Z,39.74
2022-08-10T14:42:27.777Z,40.10
2022-08-10T14:45:02.558Z,40.25
2022-08-10T14:47:56.031Z,41.31
2022-08-10T14:50:32.325Z,41.89
2022-08-10T14:53:26.547Z,42.40
2022-08-10T14:56:02.148Z,40.94
2022-08-10T14:59:05.666Z,38.47
2022-08-10T15:02:38.178Z,34.29
2022-08-10T15:04:26.690Z,33.87
2022-08-10T15:07:12.215Z,30.56
2022-08-10T15:10:00.469Z,30.77
2022-08-10T15:12:36.227Z,33.10
2022-08-10T15:15:09.732Z,35.27
2022-08-10T15:17:43.380Z,36.52
2022-08-10T15:20:21.215Z,38.31
2022-08-10T15:23:01.384Z,39.17
2022-08-10T15:25:30.714Z,40.09
2022-08-10T15:28:10.617Z,40.93
2022-08-10T15:30:51.715Z,41.68
2022-08-10T15:34:02.395Z,41.90
2022-08-10T15:37:02.347Z,42.31
2022-08-10T15:40:26.079Z,42.01
2022-08-10T15:42:55.461Z,42.39
2022-08-10T15:45:27.100Z,43.01
2022-08-10T15:48:03.361Z,42.69
2022-08-10T15:50:44.064Z,41.94
2022-08-10T15:53:28.398Z,42.78
2022-08-10T15:56:06.919Z,43.10
2022-08-10T15:58:41.468Z,42.88
2022-08-10T16:02:15.006Z,43.42
2022-08-10T16:04:11.655Z,43.37
2022-08-10T16:06:56.124Z,43.78
2022-08-10T16:10:22.016Z,44.40
2022-08-10T16:13:00.144Z,44.62
2022-08-10T16:15:31.983Z,44.64
2022-08-10T16:18:29.388Z,44.88
2022-08-10T16:21:03.250Z,45.19
2022-08-10T16:23:38.048Z,45.31
2022-08-10T16:26:14.931Z,45.43
2022-08-10T16:29:02.934Z,45.17
2022-08-10T16:31:35.271Z,44.87
2022-08-10T16:34:08.064Z,44.97
2022-08-10T16:36:47.820Z,45.34
2022-08-10T16:40:00.127Z,45.49
2022-08-10T16:42:49.480Z,45.38
2022-08-10T16:45:41.675Z,45.89
2022-08-10T16:48:11.392Z,46.64
2022-08-10T16:50:45.723Z,46.69
2022-08-10T16:53:17.463Z,47.02
2022-08-10T16:56:07.253Z,47.17
2022-08-10T16:58:39.360Z,47.72
2022-08-10T17:01:37.164Z,48.49
2022-08-10T17:04:10.206Z,48.54
2022-08-10T17:06:43.342Z,48.87
2022-08-10T17:09:24.149Z,49.30
2022-08-10T17:11:55.733Z,49.19
2022-08-10T17:14:29.069Z,49.07
2022-08-10T17:17:03.005Z,48.57
2022-08-10T17:19:37.845Z,48.51
2022-08-10T17:22:21.405Z,48.25
2022-08-10T17:24:55.525Z,48.32
2022-08-10T17:28:04.318Z,48.78
2022-08-10T17:30:34.343Z,48.94
2022-08-10T17:33:19.803Z,48.93
2022-08-10T17:35:50.741Z,49.35
2022-08-10T17:38:26.435Z,49.56
2022-08-10T17:40:56.856Z,49.63
2022-08-10T17:43:58.427Z,50.04
2022-08-10T17:46:17.571Z,50.36
2022-08-10T17:48:45.615Z,50.79
2022-08-10T17:51:16.364Z,51.12
2022-08-10T17:53:50.832Z,51.47
2022-08-10T17:56:23.242Z,52.18
2022-08-10T17:58:58.215Z,52.71
2022-08-10T18:01:41.501Z,53.65
2022-08-10T18:04:20.454Z,54.15
2022-08-10T18:06:58.466Z,54.38
2022-08-10T18:09:50.217Z,55.13
2022-08-10T18:12:53.333Z,55.82
2022-08-10T18:15:27.965Z,56.50
2022-08-10T18:18:01.175Z,57.28
2022-08-10T18:20:37.840Z,57.98
2022-08-10T18:23:09.200Z,59.06
2022-08-10T18:25:40.585Z,59.59
2022-08-10T18:28:15.281Z,59.84
2022-08-10T18:30:50.803Z,60.54
2022-08-10T18:33:27.122Z,61.67
2022-08-10T18:36:00.793Z,62.30
2022-08-10T18:38:30.894Z,61.88
2022-08-10T18:41:15.859Z,62.22
2022-08-10T18:44:04.678Z,62.69
2022-08-10T18:46:52.760Z,63.33
2022-08-10T18:49:27.697Z,63.63
2022-08-10T18:51:59.405Z,64.33
2022-08-10T18:54:44.176Z,65.07
2022-08-10T18:57:51.395Z,65.56
2022-08-10T19:00:22.298Z,65.94
2022-08-10T19:03:22.052Z,66.61
2022-08-10T19:06:38.761Z,65.85
2022-08-10T19:09:45.879Z,66.01
2022-08-10T19:12:30.062Z,66.02
2022-08-10T19:15:28.581Z,66.30
2022-08-10T19:18:42.120Z,66.35
2022-08-10T19:21:43.116Z,66.76
2022-08-10T19:24:37.097Z,67.28
2022-08-10T19:27:15.637Z,67.37
2022-08-10T19:30:08.309Z,67.65
2022-08-10T19:33:20.505Z,67.81
2022-08-10T19:36:35.992Z,68.23
2022-08-10T19:39:31.625Z,68.78
2022-08-10T19:42:35.316Z,69.31
2022-08-10T19:46:00.887Z,69.91
2022-08-10T19:48:20.100Z,69.92
2022-08-10T19:51:18.881Z,70.37
2022-08-10T19:53:51.356Z,71.09
2022-08-10T19:56:39.204Z,71.29
2022-08-10T19:59:16.270Z,71.47
2022-08-10T20:02:04.784Z,71.71
2022-08-10T20:04:46.621Z,72.08
2022-08-10T20:07:24.642Z,72.24
2022-08-10T20:10:09.253Z,72.28
2022-08-10T20:12:54.577Z,72.45
2022-08-10T20:15:42.151Z,72.55
2022-08-10T20:18:26.423Z,72.86
2022-08-10T20:21:25.532Z,73.23
2022-08-10T20:24:01.519Z,73.53
2022-08-10T20:26:41.357Z,73.22
2022-08-10T20:29:59.027Z,73.18
2022-08-10T20:32:23.555Z,73.27
2022-08-10T20:34:57.546Z,73.91
2022-08-10T20:38:02.807Z,74.75
2022-08-10T20:40:38.433Z,74.90
2022-08-10T20:43:15.516Z,75.06
2022-08-10T20:46:09.518Z,75.40
2022-08-10T20:49:04.665Z,75.36
2022-08-10T20:52:14.009Z,75.31
2022-08-10T20:54:52.457Z,75.78
2022-08-10T20:57:55.479Z,75.99
2022-08-10T21:00:42.641Z,76.55
2022-08-10T21:03:22.213Z,76.65
2022-08-10T21:06:09.501Z,76.95
2022-08-10T21:08:56.348Z,77.32
2022-08-10T21:11:30.026Z,77.80
2022-08-10T21:14:33.613Z,77.71
2022-08-10T21:17:03.370Z,78.36
2022-08-10T21:19:53.638Z,78.31
2022-08-10T21:22:46.119Z,79.08
2022-08-10T21:25:29.359Z,79.18
2022-08-10T21:28:50.147Z,79.35
2022-08-10T21:31:22.043Z,79.58
2022-08-10T21:34:09.942Z,79.97
2022-08-10T21:37:12.410Z,80.07
2022-08-10T21:40:32.365Z,80.17
2022-08-10T21:43:59.390Z,80.55
2022-08-10T21:47:11.420Z,80.85
2022-08-10T21:50:27.461Z,80.95
2022-08-10T21:53:43.896Z,81.32
2022-08-10T21:57:02.038Z,81.50
2022-08-10T22:00:03.216Z,81.90
2022-08-10T22:02:53.505Z,81.97
2022-08-10T22:05:49.884Z,82.41
2022-08-10T22:09:01.193Z,82.20
2022-08-10T22:11:52.249Z,82.20
2022-08-10T22:15:05.708Z,82.33
2022-08-10T22:21:45.472Z,82.59
2022-08-10T22:25:04.448Z,82.65
2022-08-10T22:27:59.336Z,82.77
2022-08-10T22:31:22.972Z,82.83
2022-08-10T22:31:25.967Z,82.45
2022-08-10T22:34:22.775Z,82.89
2022-08-10T22:37:48.847Z,82.89
2022-08-10T22:40:39.465Z,83.13
2022-08-10T22:43:36.326Z,82.94
2022-08-10T22:46:34.270Z,83.31
2022-08-10T22:49:02.736Z,83.24
2022-08-10T22:51:54.439Z,83.36
2022-08-10T22:54:57.503Z,83.39
2022-08-10T22:57:44.679Z,83.25
2022-08-10T23:00:14.625Z,83.34
2022-08-10T23:02:55.595Z,83.52
2022-08-10T23:05:34.753Z,83.76
2022-08-10T23:08:19.632Z,84.11
2022-08-10T23:11:05.675Z,84.27
2022-08-10T23:13:38.082Z,84.34
2022-08-10T23:16:32.644Z,84.41
2022-08-10T23:19:10.189Z,84.71
2022-08-10T23:22:05.987Z,84.96
2022-08-10T23:24:37.295Z,84.96
2022-08-10T23:27:12.942Z,85.01
2022-08-10T23:30:10.706Z,85.22
2022-08-10T23:32:43.883Z,85.19
2022-08-10T23:36:05.681Z,85.30
2022-08-10T23:38:12.546Z,85.23
2022-08-10T23:40:46.617Z,85.21
2022-08-10T23:43:28.784Z,85.32
2022-08-10T23:46:08.226Z,85.38
2022-08-10T23:48:38.367Z,85.47
2022-08-10T23:51:16.431Z,85.52
2022-08-10T23:53:48.202Z,85.75
2022-08-10T23:56:20.743Z,86.00
2022-08-10T23:58:55.925Z,86.17
